sensor_id;sensor_type;location;lat;lon;timestamp;P1;durP1;ratioP1;P2;durP2;ratioP2
25838;SDS011;13669;50.186;27.062;2022-12-28T00:01:25;7.63;;;2.50;;
25838;SDS011;13669;50.186;27.062;2022-12-28T00:03:54;11.50;;;3.40;;
25838;SDS011;13669;50.186;27.062;2022-12-28T00:06:24;8.77;;;3.27;;
25838;SDS011;13669;50.186;27.062;2022-12-28T00:08:52;6.32;;;3.08;;
25838;SDS011;13669;50.186;27.062;2022-12-28T00:11:21;7.32;;;2.70;;
25838;SDS011;13669;50.186;27.062;2022-12-28T00:13:57;7.72;;;2.53;;
25838;SDS011;13669;50.186;27.062;2022-12-28T00:16:34;10.45;;;2.75;;
25838;SDS011;13669;50.186;27.062;2022-12-28T00:19:08;8.80;;;2.65;;
25838;SDS011;13669;50.186;27.062;2022-12-28T00:21:38;6.55;;;2.63;;
25838;SDS011;13669;50.186;27.062;2022-12-28T00:24:06;7.53;;;3.15;;
25838;SDS011;13669;50.186;27.062;2022-12-28T00:26:34;7.30;;;2.55;;
25838;SDS011;13669;50.186;27.062;2022-12-28T00:29:02;7.60;;;3.03;;
25838;SDS011;13669;50.186;27.062;2022-12-28T00:31:32;8.00;;;2.88;;
25838;SDS011;13669;50.186;27.062;2022-12-28T00:34:00;7.93;;;2.85;;
25838;SDS011;13669;50.186;27.062;2022-12-28T00:36:28;7.88;;;2.20;;
25838;SDS011;13669;50.186;27.062;2022-12-28T00:39:17;8.32;;;2.80;;
25838;SDS011;13669;50.186;27.062;2022-12-28T00:41:45;8.18;;;2.75;;
25838;SDS011;13669;50.186;27.062;2022-12-28T00:44:13;11.82;;;3.50;;
25838;SDS011;13669;50.186;27.062;2022-12-28T00:46:41;5.35;;;2.53;;
25838;SDS011;13669;50.186;27.062;2022-12-28T00:49:08;9.10;;;2.30;;
25838;SDS011;13669;50.186;27.062;2022-12-28T00:51:36;5.10;;;2.60;;
25838;SDS011;13669;50.186;27.062;2022-12-28T00:54:03;7.65;;;2.80;;
25838;SDS011;13669;50.186;27.062;2022-12-28T00:56:31;4.15;;;2.05;;
25838;SDS011;13669;50.186;27.062;2022-12-28T00:58:58;6.95;;;2.38;;
25838;SDS011;13669;50.186;27.062;2022-12-28T01:01:26;9.90;;;3.38;;
25838;SDS011;13669;50.186;27.062;2022-12-28T01:03:55;4.00;;;2.03;;
25838;SDS011;13669;50.186;27.062;2022-12-28T01:06:23;4.30;;;2.05;;
25838;SDS011;13669;50.186;27.062;2022-12-28T01:08:52;5.70;;;2.55;;
25838;SDS011;13669;50.186;27.062;2022-12-28T01:11:21;5.20;;;2.63;;
25838;SDS011;13669;50.186;27.062;2022-12-28T01:13:54;7.72;;;2.83;;
25838;SDS011;13669;50.186;27.062;2022-12-28T01:16:24;8.82;;;3.08;;
25838;SDS011;13669;50.186;27.062;2022-12-28T01:18:57;7.60;;;2.88;;
25838;SDS011;13669;50.186;27.062;2022-12-28T01:21:27;6.45;;;2.03;;
25838;SDS011;13669;50.186;27.062;2022-12-28T01:23:57;9.40;;;3.65;;
25838;SDS011;13669;50.186;27.062;2022-12-28T01:26:27;10.07;;;3.47;;
25838;SDS011;13669;50.186;27.062;2022-12-28T01:28:55;6.45;;;2.92;;
25838;SDS011;13669;50.186;27.062;2022-12-28T01:31:24;7.38;;;3.10;;
25838;SDS011;13669;50.186;27.062;2022-12-28T01:33:52;10.88;;;3.60;;
25838;SDS011;13669;50.186;27.062;2022-12-28T01:36:21;7.72;;;3.20;;
25838;SDS011;13669;50.186;27.062;2022-12-28T01:38:54;7.03;;;2.95;;
25838;SDS011;13669;50.186;27.062;2022-12-28T01:41:23;7.82;;;3.25;;
25838;SDS011;13669;50.186;27.062;2022-12-28T01:49:01;10.00;;;3.38;;
25838;SDS011;13669;50.186;27.062;2022-12-28T01:51:32;7.55;;;3.10;;
25838;SDS011;13669;50.186;27.062;2022-12-28T01:54:11;8.07;;;3.35;;
25838;SDS011;13669;50.186;27.062;2022-12-28T01:56:39;7.35;;;3.03;;
25838;SDS011;13669;50.186;27.062;2022-12-28T01:59:08;7.40;;;3.08;;
25838;SDS011;13669;50.186;27.062;2022-12-28T02:01:37;7.40;;;3.10;;
25838;SDS011;13669;50.186;27.062;2022-12-28T02:04:05;6.80;;;3.20;;
25838;SDS011;13669;50.186;27.062;2022-12-28T02:06:32;7.35;;;3.05;;
25838;SDS011;13669;50.186;27.062;2022-12-28T02:09:05;9.25;;;3.25;;
25838;SDS011;13669;50.186;27.062;2022-12-28T02:14:08;10.68;;;3.05;;
25838;SDS011;13669;50.186;27.062;2022-12-28T02:16:39;5.55;;;2.38;;
25838;SDS011;13669;50.186;27.062;2022-12-28T02:19:11;9.15;;;3.17;;
25838;SDS011;13669;50.186;27.062;2022-12-28T02:27:48;8.77;;;3.90;;
25838;SDS011;13669;50.186;27.062;2022-12-28T02:30:41;7.85;;;2.83;;
25838;SDS011;13669;50.186;27.062;2022-12-28T02:33:31;10.73;;;3.30;;
25838;SDS011;13669;50.186;27.062;2022-12-28T02:36:18;7.47;;;3.55;;
25838;SDS011;13669;50.186;27.062;2022-12-28T02:38:57;6.90;;;3.30;;
25838;SDS011;13669;50.186;27.062;2022-12-28T02:41:41;9.95;;;3.92;;
25838;SDS011;13669;50.186;27.062;2022-12-28T02:44:11;7.80;;;3.07;;
25838;SDS011;13669;50.186;27.062;2022-12-28T02:46:38;9.00;;;3.05;;
25838;SDS011;13669;50.186;27.062;2022-12-28T02:49:41;7.43;;;3.63;;
25838;SDS011;13669;50.186;27.062;2022-12-28T02:55:20;10.32;;;3.85;;
25838;SDS011;13669;50.186;27.062;2022-12-28T03:04:10;6.60;;;3.10;;
25838;SDS011;13669;50.186;27.062;2022-12-28T03:09:46;6.40;;;3.08;;
25838;SDS011;13669;50.186;27.062;2022-12-28T03:12:26;9.15;;;3.65;;
25838;SDS011;13669;50.186;27.062;2022-12-28T03:15:00;11.77;;;3.78;;
25838;SDS011;13669;50.186;27.062;2022-12-28T03:17:37;8.13;;;3.20;;
25838;SDS011;13669;50.186;27.062;2022-12-28T03:20:27;6.25;;;3.67;;
25838;SDS011;13669;50.186;27.062;2022-12-28T03:23:16;9.23;;;3.55;;
25838;SDS011;13669;50.186;27.062;2022-12-28T03:26:06;10.38;;;3.70;;
25838;SDS011;13669;50.186;27.062;2022-12-28T03:28:54;8.15;;;3.63;;
25838;SDS011;13669;50.186;27.062;2022-12-28T03:31:43;10.45;;;4.00;;
25838;SDS011;13669;50.186;27.062;2022-12-28T03:34:11;9.00;;;3.58;;
25838;SDS011;13669;50.186;27.062;2022-12-28T03:37:03;7.82;;;3.22;;
25838;SDS011;13669;50.186;27.062;2022-12-28T03:43:20;9.32;;;3.90;;
25838;SDS011;13669;50.186;27.062;2022-12-28T03:48:58;7.72;;;4.22;;
25838;SDS011;13669;50.186;27.062;2022-12-28T03:51:27;11.73;;;3.72;;
25838;SDS011;13669;50.186;27.062;2022-12-28T03:53:57;8.80;;;4.13;;
25838;SDS011;13669;50.186;27.062;2022-12-28T03:56:26;8.93;;;3.95;;
25838;SDS011;13669;50.186;27.062;2022-12-28T03:58:54;7.55;;;4.13;;
25838;SDS011;13669;50.186;27.062;2022-12-28T04:01:22;9.43;;;4.43;;
25838;SDS011;13669;50.186;27.062;2022-12-28T04:03:50;7.97;;;3.58;;
25838;SDS011;13669;50.186;27.062;2022-12-28T04:06:18;10.98;;;3.33;;
25838;SDS011;13669;50.186;27.062;2022-12-28T04:08:45;10.38;;;4.30;;
25838;SDS011;13669;50.186;27.062;2022-12-28T04:11:13;8.02;;;3.17;;
25838;SDS011;13669;50.186;27.062;2022-12-28T04:13:41;10.38;;;4.38;;
25838;SDS011;13669;50.186;27.062;2022-12-28T04:16:12;7.05;;;3.80;;
25838;SDS011;13669;50.186;27.062;2022-12-28T04:18:40;9.48;;;4.25;;
25838;SDS011;13669;50.186;27.062;2022-12-28T04:21:09;9.65;;;4.45;;
25838;SDS011;13669;50.186;27.062;2022-12-28T04:23:37;10.30;;;4.07;;
25838;SDS011;13669;50.186;27.062;2022-12-28T04:26:06;7.25;;;3.10;;
25838;SDS011;13669;50.186;27.062;2022-12-28T04:28:39;9.30;;;4.40;;
25838;SDS011;13669;50.186;27.062;2022-12-28T04:31:07;7.75;;;4.03;;
25838;SDS011;13669;50.186;27.062;2022-12-28T04:33:37;10.98;;;4.65;;
25838;SDS011;13669;50.186;27.062;2022-12-28T04:36:10;13.40;;;4.78;;
25838;SDS011;13669;50.186;27.062;2022-12-28T04:38:39;7.28;;;3.90;;
25838;SDS011;13669;50.186;27.062;2022-12-28T04:41:07;11.75;;;4.20;;
25838;SDS011;13669;50.186;27.062;2022-12-28T04:43:35;8.25;;;4.03;;
25838;SDS011;13669;50.186;27.062;2022-12-28T04:46:05;11.93;;;3.45;;
25838;SDS011;13669;50.186;27.062;2022-12-28T04:48:35;11.55;;;3.92;;
25838;SDS011;13669;50.186;27.062;2022-12-28T04:51:10;9.95;;;4.28;;
25838;SDS011;13669;50.186;27.062;2022-12-28T04:53:45;9.60;;;4.10;;
25838;SDS011;13669;50.186;27.062;2022-12-28T04:56:13;7.97;;;4.13;;
25838;SDS011;13669;50.186;27.062;2022-12-28T04:58:42;8.45;;;3.88;;
25838;SDS011;13669;50.186;27.062;2022-12-28T05:01:10;7.15;;;4.00;;
25838;SDS011;13669;50.186;27.062;2022-12-28T05:03:47;9.77;;;4.40;;
25838;SDS011;13669;50.186;27.062;2022-12-28T05:06:22;7.50;;;3.45;;
25838;SDS011;13669;50.186;27.062;2022-12-28T05:08:50;7.97;;;3.85;;
25838;SDS011;13669;50.186;27.062;2022-12-28T05:11:19;9.20;;;4.63;;
25838;SDS011;13669;50.186;27.062;2022-12-28T05:13:48;8.30;;;4.30;;
25838;SDS011;13669;50.186;27.062;2022-12-28T05:16:16;9.38;;;4.00;;
25838;SDS011;13669;50.186;27.062;2022-12-28T05:18:45;8.90;;;4.60;;
25838;SDS011;13669;50.186;27.062;2022-12-28T05:21:17;11.20;;;4.40;;
25838;SDS011;13669;50.186;27.062;2022-12-28T05:23:46;9.25;;;4.50;;
25838;SDS011;13669;50.186;27.062;2022-12-28T05:26:18;10.27;;;3.97;;
25838;SDS011;13669;50.186;27.062;2022-12-28T05:28:47;9.55;;;3.97;;
25838;SDS011;13669;50.186;27.062;2022-12-28T05:31:19;11.65;;;5.00;;
25838;SDS011;13669;50.186;27.062;2022-12-28T05:33:48;11.70;;;4.50;;
25838;SDS011;13669;50.186;27.062;2022-12-28T05:36:19;7.45;;;3.53;;
25838;SDS011;13669;50.186;27.062;2022-12-28T05:38:48;9.57;;;3.33;;
25838;SDS011;13669;50.186;27.062;2022-12-28T05:41:23;10.25;;;4.50;;
25838;SDS011;13669;50.186;27.062;2022-12-28T05:43:53;10.90;;;4.03;;
25838;SDS011;13669;50.186;27.062;2022-12-28T05:46:23;12.48;;;4.60;;
25838;SDS011;13669;50.186;27.062;2022-12-28T05:48:54;10.07;;;3.78;;
25838;SDS011;13669;50.186;27.062;2022-12-28T05:51:26;11.77;;;4.88;;
25838;SDS011;13669;50.186;27.062;2022-12-28T05:53:57;10.90;;;5.10;;
25838;SDS011;13669;50.186;27.062;2022-12-28T05:56:26;10.75;;;4.07;;
25838;SDS011;13669;50.186;27.062;2022-12-28T05:58:56;8.15;;;3.92;;
25838;SDS011;13669;50.186;27.062;2022-12-28T06:01:26;9.30;;;4.13;;
25838;SDS011;13669;50.186;27.062;2022-12-28T06:03:55;9.35;;;3.95;;
25838;SDS011;13669;50.186;27.062;2022-12-28T06:06:25;10.45;;;3.90;;
25838;SDS011;13669;50.186;27.062;2022-12-28T06:08:52;13.30;;;4.35;;
25838;SDS011;13669;50.186;27.062;2022-12-28T06:11:24;11.70;;;4.72;;
25838;SDS011;13669;50.186;27.062;2022-12-28T06:13:53;13.10;;;4.32;;
25838;SDS011;13669;50.186;27.062;2022-12-28T06:16:22;9.57;;;4.72;;
25838;SDS011;13669;50.186;27.062;2022-12-28T06:18:51;8.35;;;4.25;;
25838;SDS011;13669;50.186;27.062;2022-12-28T06:23:48;9.32;;;3.88;;
25838;SDS011;13669;50.186;27.062;2022-12-28T06:26:17;13.27;;;4.50;;
25838;SDS011;13669;50.186;27.062;2022-12-28T06:28:46;10.90;;;4.40;;
25838;SDS011;13669;50.186;27.062;2022-12-28T06:31:15;7.70;;;3.80;;
25838;SDS011;13669;50.186;27.062;2022-12-28T06:33:44;9.82;;;4.18;;
25838;SDS011;13669;50.186;27.062;2022-12-28T06:36:20;11.52;;;4.60;;
25838;SDS011;13669;50.186;27.062;2022-12-28T06:39:09;12.60;;;4.10;;
25838;SDS011;13669;50.186;27.062;2022-12-28T06:41:38;11.57;;;3.25;;
25838;SDS011;13669;50.186;27.062;2022-12-28T06:44:07;7.75;;;3.60;;
25838;SDS011;13669;50.186;27.062;2022-12-28T06:46:36;10.57;;;4.32;;
25838;SDS011;13669;50.186;27.062;2022-12-28T06:49:04;8.77;;;4.05;;
25838;SDS011;13669;50.186;27.062;2022-12-28T06:51:32;7.90;;;3.25;;
25838;SDS011;13669;50.186;27.062;2022-12-28T06:54:08;7.78;;;3.58;;
25838;SDS011;13669;50.186;27.062;2022-12-28T06:56:36;8.38;;;3.17;;
25838;SDS011;13669;50.186;27.062;2022-12-28T06:59:04;7.28;;;3.97;;
25838;SDS011;13669;50.186;27.062;2022-12-28T07:01:33;10.80;;;4.55;;
25838;SDS011;13669;50.186;27.062;2022-12-28T07:04:03;12.68;;;5.32;;
25838;SDS011;13669;50.186;27.062;2022-12-28T07:06:36;11.90;;;4.53;;
25838;SDS011;13669;50.186;27.062;2022-12-28T07:09:09;8.82;;;4.18;;
25838;SDS011;13669;50.186;27.062;2022-12-28T07:11:39;13.55;;;5.53;;
25838;SDS011;13669;50.186;27.062;2022-12-28T07:14:08;16.38;;;5.35;;
25838;SDS011;13669;50.186;27.062;2022-12-28T07:16:35;11.13;;;5.00;;
25838;SDS011;13669;50.186;27.062;2022-12-28T07:19:02;13.27;;;4.70;;
25838;SDS011;13669;50.186;27.062;2022-12-28T07:21:33;10.23;;;5.35;;
25838;SDS011;13669;50.186;27.062;2022-12-28T07:24:02;9.45;;;4.40;;
25838;SDS011;13669;50.186;27.062;2022-12-28T07:26:31;13.98;;;4.50;;
25838;SDS011;13669;50.186;27.062;2022-12-28T07:29:01;8.70;;;4.10;;
25838;SDS011;13669;50.186;27.062;2022-12-28T07:31:31;14.23;;;5.22;;
25838;SDS011;13669;50.186;27.062;2022-12-28T07:34:11;11.65;;;4.93;;
25838;SDS011;13669;50.186;27.062;2022-12-28T07:36:40;10.93;;;4.72;;
25838;SDS011;13669;50.186;27.062;2022-12-28T07:39:08;12.18;;;5.15;;
25838;SDS011;13669;50.186;27.062;2022-12-28T07:41:36;10.57;;;4.93;;
25838;SDS011;13669;50.186;27.062;2022-12-28T07:44:04;10.57;;;4.60;;
25838;SDS011;13669;50.186;27.062;2022-12-28T07:46:33;11.85;;;4.65;;
25838;SDS011;13669;50.186;27.062;2022-12-28T07:49:01;11.40;;;4.45;;
25838;SDS011;13669;50.186;27.062;2022-12-28T07:51:29;14.70;;;4.72;;
25838;SDS011;13669;50.186;27.062;2022-12-28T07:53:59;10.68;;;4.38;;
25838;SDS011;13669;50.186;27.062;2022-12-28T07:56:27;10.65;;;5.15;;
25838;SDS011;13669;50.186;27.062;2022-12-28T07:58:57;10.13;;;4.25;;
25838;SDS011;13669;50.186;27.062;2022-12-28T08:01:27;12.40;;;4.53;;
25838;SDS011;13669;50.186;27.062;2022-12-28T08:03:59;12.32;;;4.88;;
25838;SDS011;13669;50.186;27.062;2022-12-28T08:06:28;9.65;;;4.18;;
25838;SDS011;13669;50.186;27.062;2022-12-28T08:08:59;11.27;;;4.85;;
25838;SDS011;13669;50.186;27.062;2022-12-28T08:11:28;12.80;;;5.30;;
25838;SDS011;13669;50.186;27.062;2022-12-28T08:13:57;10.63;;;4.85;;
25838;SDS011;13669;50.186;27.062;2022-12-28T08:16:27;10.75;;;4.82;;
25838;SDS011;13669;50.186;27.062;2022-12-28T08:18:56;12.83;;;4.30;;
25838;SDS011;13669;50.186;27.062;2022-12-28T08:21:25;10.52;;;4.60;;
25838;SDS011;13669;50.186;27.062;2022-12-28T08:23:54;11.52;;;4.78;;
25838;SDS011;13669;50.186;27.062;2022-12-28T08:26:23;13.23;;;5.15;;
25838;SDS011;13669;50.186;27.062;2022-12-28T08:28:56;11.00;;;5.30;;
25838;SDS011;13669;50.186;27.062;2022-12-28T08:31:26;11.55;;;5.28;;
25838;SDS011;13669;50.186;27.062;2022-12-28T08:33:56;11.25;;;5.30;;
25838;SDS011;13669;50.186;27.062;2022-12-28T08:36:24;12.40;;;5.32;;
25838;SDS011;13669;50.186;27.062;2022-12-28T08:38:52;15.70;;;5.88;;
25838;SDS011;13669;50.186;27.062;2022-12-28T08:41:20;12.43;;;5.97;;
25838;SDS011;13669;50.186;27.062;2022-12-28T08:43:50;15.68;;;5.95;;
25838;SDS011;13669;50.186;27.062;2022-12-28T08:46:19;12.30;;;5.10;;
25838;SDS011;13669;50.186;27.062;2022-12-28T08:48:52;10.98;;;4.45;;
25838;SDS011;13669;50.186;27.062;2022-12-28T08:51:22;10.63;;;4.85;;
25838;SDS011;13669;50.186;27.062;2022-12-28T08:54:00;15.50;;;6.75;;
25838;SDS011;13669;50.186;27.062;2022-12-28T08:56:29;13.23;;;5.18;;
25838;SDS011;13669;50.186;27.062;2022-12-28T08:58:58;13.25;;;4.90;;
25838;SDS011;13669;50.186;27.062;2022-12-28T09:01:27;12.38;;;5.40;;
25838;SDS011;13669;50.186;27.062;2022-12-28T09:04:17;11.32;;;5.00;;
25838;SDS011;13669;50.186;27.062;2022-12-28T09:06:46;10.73;;;4.22;;
25838;SDS011;13669;50.186;27.062;2022-12-28T09:09:15;10.38;;;4.80;;
25838;SDS011;13669;50.186;27.062;2022-12-28T09:11:44;14.53;;;6.10;;
25838;SDS011;13669;50.186;27.062;2022-12-28T09:14:13;14.93;;;6.30;;
25838;SDS011;13669;50.186;27.062;2022-12-28T09:16:50;11.98;;;5.07;;
25838;SDS011;13669;50.186;27.062;2022-12-28T09:19:18;10.18;;;4.93;;
25838;SDS011;13669;50.186;27.062;2022-12-28T09:21:46;8.05;;;4.05;;
25838;SDS011;13669;50.186;27.062;2022-12-28T09:24:18;9.85;;;4.45;;
25838;SDS011;13669;50.186;27.062;2022-12-28T09:26:45;12.40;;;4.88;;
25838;SDS011;13669;50.186;27.062;2022-12-28T09:29:13;11.50;;;5.15;;
25838;SDS011;13669;50.186;27.062;2022-12-28T09:31:41;10.88;;;4.70;;
25838;SDS011;13669;50.186;27.062;2022-12-28T09:34:10;8.57;;;4.63;;
25838;SDS011;13669;50.186;27.062;2022-12-28T09:36:58;12.15;;;4.40;;
25838;SDS011;13669;50.186;27.062;2022-12-28T09:39:26;11.95;;;4.72;;
25838;SDS011;13669;50.186;27.062;2022-12-28T09:41:58;8.70;;;3.97;;
25838;SDS011;13669;50.186;27.062;2022-12-28T09:44:43;12.18;;;4.85;;
25838;SDS011;13669;50.186;27.062;2022-12-28T09:47:23;10.48;;;5.07;;
25838;SDS011;13669;50.186;27.062;2022-12-28T09:55:33;8.85;;;4.63;;
25838;SDS011;13669;50.186;27.062;2022-12-28T09:58:05;12.10;;;5.43;;
25838;SDS011;13669;50.186;27.062;2022-12-28T10:00:43;12.65;;;5.45;;
25838;SDS011;13669;50.186;27.062;2022-12-28T10:03:21;9.35;;;4.45;;
25838;SDS011;13669;50.186;27.062;2022-12-28T10:05:57;12.75;;;5.95;;
25838;SDS011;13669;50.186;27.062;2022-12-28T10:08:26;18.02;;;5.97;;
25838;SDS011;13669;50.186;27.062;2022-12-28T10:10:54;13.60;;;6.38;;
25838;SDS011;13669;50.186;27.062;2022-12-28T10:13:29;9.00;;;4.97;;
25838;SDS011;13669;50.186;27.062;2022-12-28T10:16:22;14.25;;;5.82;;
25838;SDS011;13669;50.186;27.062;2022-12-28T10:18:52;11.57;;;5.23;;
25838;SDS011;13669;50.186;27.062;2022-12-28T10:21:20;16.63;;;5.72;;
25838;SDS011;13669;50.186;27.062;2022-12-28T10:23:58;15.68;;;6.10;;
25838;SDS011;13669;50.186;27.062;2022-12-28T10:26:46;10.70;;;3.70;;
25838;SDS011;13669;50.186;27.062;2022-12-28T10:29:16;10.48;;;4.82;;
25838;SDS011;13669;50.186;27.062;2022-12-28T10:32:07;12.65;;;5.90;;
25838;SDS011;13669;50.186;27.062;2022-12-28T10:34:46;12.05;;;6.63;;
25838;SDS011;13669;50.186;27.062;2022-12-28T10:37:21;8.90;;;5.03;;
25838;SDS011;13669;50.186;27.062;2022-12-28T10:39:51;13.07;;;5.78;;
25838;SDS011;13669;50.186;27.062;2022-12-28T10:42:29;14.00;;;5.15;;
25838;SDS011;13669;50.186;27.062;2022-12-28T10:45:03;15.43;;;6.75;;
25838;SDS011;13669;50.186;27.062;2022-12-28T10:50:02;12.02;;;5.20;;
25838;SDS011;13669;50.186;27.062;2022-12-28T10:52:56;13.30;;;6.07;;
25838;SDS011;13669;50.186;27.062;2022-12-28T10:55:28;8.98;;;5.10;;
25838;SDS011;13669;50.186;27.062;2022-12-28T11:03:39;10.27;;;5.03;;
25838;SDS011;13669;50.186;27.062;2022-12-28T11:11:45;10.98;;;4.75;;
25838;SDS011;13669;50.186;27.062;2022-12-28T11:16:51;10.57;;;4.80;;
25838;SDS011;13669;50.186;27.062;2022-12-28T11:19:19;11.80;;;5.03;;
25838;SDS011;13669;50.186;27.062;2022-12-28T11:21:47;8.75;;;5.32;;
25838;SDS011;13669;50.186;27.062;2022-12-28T11:24:16;8.85;;;4.15;;
25838;SDS011;13669;50.186;27.062;2022-12-28T11:26:46;9.27;;;4.07;;
25838;SDS011;13669;50.186;27.062;2022-12-28T11:29:16;9.05;;;4.40;;
25838;SDS011;13669;50.186;27.062;2022-12-28T11:31:49;13.32;;;4.32;;
25838;SDS011;13669;50.186;27.062;2022-12-28T11:34:38;12.18;;;4.97;;
25838;SDS011;13669;50.186;27.062;2022-12-28T11:37:11;7.35;;;3.72;;
25838;SDS011;13669;50.186;27.062;2022-12-28T11:39:49;10.50;;;3.20;;
25838;SDS011;13669;50.186;27.062;2022-12-28T11:45:14;6.68;;;2.83;;
25838;SDS011;13669;50.186;27.062;2022-12-28T11:51:15;7.50;;;2.97;;
25838;SDS011;13669;50.186;27.062;2022-12-28T12:04:35;8.98;;;3.17;;
25838;SDS011;13669;50.186;27.062;2022-12-28T12:07:16;10.80;;;3.65;;
25838;SDS011;13669;50.186;27.062;2022-12-28T12:12:55;8.77;;;3.38;;
25838;SDS011;13669;50.186;27.062;2022-12-28T12:15:29;11.02;;;3.30;;
25838;SDS011;13669;50.186;27.062;2022-12-28T12:18:01;7.35;;;2.78;;
25838;SDS011;13669;50.186;27.062;2022-12-28T12:20:41;6.78;;;2.47;;
25838;SDS011;13669;50.186;27.062;2022-12-28T12:27:39;8.55;;;2.78;;
25838;SDS011;13669;50.186;27.062;2022-12-28T12:30:17;12.10;;;3.35;;
25838;SDS011;13669;50.186;27.062;2022-12-28T12:32:48;6.63;;;2.78;;
25838;SDS011;13669;50.186;27.062;2022-12-28T12:35:26;8.30;;;3.03;;
25838;SDS011;13669;50.186;27.062;2022-12-28T12:43:47;8.52;;;3.15;;
25838;SDS011;13669;50.186;27.062;2022-12-28T12:49:25;10.10;;;3.63;;
25838;SDS011;13669;50.186;27.062;2022-12-28T12:57:59;9.10;;;3.80;;
25838;SDS011;13669;50.186;27.062;2022-12-28T13:00:41;9.85;;;3.50;;
25838;SDS011;13669;50.186;27.062;2022-12-28T13:06:13;9.02;;;3.60;;
25838;SDS011;13669;50.186;27.062;2022-12-28T13:08:45;11.50;;;4.50;;
25838;SDS011;13669;50.186;27.062;2022-12-28T13:11:14;13.15;;;4.57;;
25838;SDS011;13669;50.186;27.062;2022-12-28T13:13:45;10.80;;;4.65;;
25838;SDS011;13669;50.186;27.062;2022-12-28T13:16:15;12.00;;;3.90;;
25838;SDS011;13669;50.186;27.062;2022-12-28T13:18:58;11.25;;;3.67;;
25838;SDS011;13669;50.186;27.062;2022-12-28T13:21:28;8.52;;;3.65;;
25838;SDS011;13669;50.186;27.062;2022-12-28T13:24:25;11.00;;;3.83;;
25838;SDS011;13669;50.186;27.062;2022-12-28T13:26:53;9.02;;;4.20;;
25838;SDS011;13669;50.186;27.062;2022-12-28T13:29:23;11.70;;;5.05;;
25838;SDS011;13669;50.186;27.062;2022-12-28T13:31:52;11.65;;;4.45;;
25838;SDS011;13669;50.186;27.062;2022-12-28T13:37:02;10.32;;;4.65;;
25838;SDS011;13669;50.186;27.062;2022-12-28T13:39:39;12.52;;;5.13;;
25838;SDS011;13669;50.186;27.062;2022-12-28T13:42:13;9.80;;;5.40;;
25838;SDS011;13669;50.186;27.062;2022-12-28T13:45:09;12.73;;;5.55;;
25838;SDS011;13669;50.186;27.062;2022-12-28T13:47:42;10.02;;;5.45;;
25838;SDS011;13669;50.186;27.062;2022-12-28T13:50:16;14.25;;;6.50;;
25838;SDS011;13669;50.186;27.062;2022-12-28T13:52:54;10.73;;;6.25;;
25838;SDS011;13669;50.186;27.062;2022-12-28T13:55:28;14.25;;;6.78;;
25838;SDS011;13669;50.186;27.062;2022-12-28T13:58:02;18.23;;;7.53;;
25838;SDS011;13669;50.186;27.062;2022-12-28T14:00:35;18.33;;;8.55;;
25838;SDS011;13669;50.186;27.062;2022-12-28T14:03:06;20.52;;;8.90;;
25838;SDS011;13669;50.186;27.062;2022-12-28T14:05:38;20.83;;;10.25;;
25838;SDS011;13669;50.186;27.062;2022-12-28T14:08:13;25.83;;;10.45;;
25838;SDS011;13669;50.186;27.062;2022-12-28T14:10:42;19.83;;;9.40;;
25838;SDS011;13669;50.186;27.062;2022-12-28T14:13:13;23.95;;;10.18;;
25838;SDS011;13669;50.186;27.062;2022-12-28T14:15:43;21.10;;;9.68;;
25838;SDS011;13669;50.186;27.062;2022-12-28T14:18:13;18.35;;;8.63;;
25838;SDS011;13669;50.186;27.062;2022-12-28T14:20:48;23.02;;;8.95;;
25838;SDS011;13669;50.186;27.062;2022-12-28T14:23:23;25.17;;;10.90;;
25838;SDS011;13669;50.186;27.062;2022-12-28T14:25:52;26.20;;;12.02;;
25838;SDS011;13669;50.186;27.062;2022-12-28T14:28:22;32.75;;;12.75;;
25838;SDS011;13669;50.186;27.062;2022-12-28T14:30:57;21.88;;;9.55;;
25838;SDS011;13669;50.186;27.062;2022-12-28T14:33:26;32.10;;;11.75;;
25838;SDS011;13669;50.186;27.062;2022-12-28T14:35:56;34.95;;;12.57;;
25838;SDS011;13669;50.186;27.062;2022-12-28T14:41:34;33.63;;;14.02;;
25838;SDS011;13669;50.186;27.062;2022-12-28T14:44:20;31.75;;;13.75;;
25838;SDS011;13669;50.186;27.062;2022-12-28T14:46:52;29.13;;;12.48;;
25838;SDS011;13669;50.186;27.062;2022-12-28T14:54:47;25.13;;;11.73;;
25838;SDS011;13669;50.186;27.062;2022-12-28T14:57:18;33.35;;;14.40;;
25838;SDS011;13669;50.186;27.062;2022-12-28T15:00:05;41.65;;;17.15;;
25838;SDS011;13669;50.186;27.062;2022-12-28T15:02:47;55.38;;;22.17;;
25838;SDS011;13669;50.186;27.062;2022-12-28T15:08:20;40.00;;;16.77;;
25838;SDS011;13669;50.186;27.062;2022-12-28T15:10:52;29.23;;;13.30;;
25838;SDS011;13669;50.186;27.062;2022-12-28T15:13:22;29.98;;;13.77;;
25838;SDS011;13669;50.186;27.062;2022-12-28T15:15:51;29.20;;;12.43;;
25838;SDS011;13669;50.186;27.062;2022-12-28T15:18:20;29.73;;;13.85;;
25838;SDS011;13669;50.186;27.062;2022-12-28T15:20:48;28.85;;;13.27;;
25838;SDS011;13669;50.186;27.062;2022-12-28T15:23:16;27.88;;;13.73;;
25838;SDS011;13669;50.186;27.062;2022-12-28T15:25:43;18.70;;;9.70;;
25838;SDS011;13669;50.186;27.062;2022-12-28T15:28:11;23.63;;;11.93;;
25838;SDS011;13669;50.186;27.062;2022-12-28T15:30:39;25.02;;;11.77;;
25838;SDS011;13669;50.186;27.062;2022-12-28T15:33:10;23.20;;;9.90;;
25838;SDS011;13669;50.186;27.062;2022-12-28T15:35:38;22.05;;;10.82;;
25838;SDS011;13669;50.186;27.062;2022-12-28T15:38:06;22.42;;;9.95;;
25838;SDS011;13669;50.186;27.062;2022-12-28T15:40:33;21.60;;;9.15;;
25838;SDS011;13669;50.186;27.062;2022-12-28T15:43:04;17.40;;;7.82;;
25838;SDS011;13669;50.186;27.062;2022-12-28T15:45:31;12.98;;;6.68;;
25838;SDS011;13669;50.186;27.062;2022-12-28T15:47:59;17.50;;;8.20;;
25838;SDS011;13669;50.186;27.062;2022-12-28T15:50:26;22.17;;;8.95;;
25838;SDS011;13669;50.186;27.062;2022-12-28T15:52:53;18.55;;;8.32;;
25838;SDS011;13669;50.186;27.062;2022-12-28T15:55:21;20.35;;;9.63;;
25838;SDS011;13669;50.186;27.062;2022-12-28T15:57:48;20.85;;;10.02;;
25838;SDS011;13669;50.186;27.062;2022-12-28T16:00:16;18.20;;;8.32;;
25838;SDS011;13669;50.186;27.062;2022-12-28T16:02:44;20.13;;;8.90;;
25838;SDS011;13669;50.186;27.062;2022-12-28T16:05:12;21.35;;;8.88;;
25838;SDS011;13669;50.186;27.062;2022-12-28T16:07:40;19.25;;;8.80;;
25838;SDS011;13669;50.186;27.062;2022-12-28T16:10:08;17.08;;;8.20;;
25838;SDS011;13669;50.186;27.062;2022-12-28T16:12:35;16.98;;;8.45;;
25838;SDS011;13669;50.186;27.062;2022-12-28T16:15:03;20.90;;;8.70;;
25838;SDS011;13669;50.186;27.062;2022-12-28T16:17:30;17.95;;;7.20;;
25838;SDS011;13669;50.186;27.062;2022-12-28T16:19:58;17.20;;;7.68;;
25838;SDS011;13669;50.186;27.062;2022-12-28T16:22:26;15.55;;;7.88;;
25838;SDS011;13669;50.186;27.062;2022-12-28T16:24:53;12.27;;;6.57;;
25838;SDS011;13669;50.186;27.062;2022-12-28T16:27:20;13.77;;;6.60;;
25838;SDS011;13669;50.186;27.062;2022-12-28T16:29:48;13.77;;;7.43;;
25838;SDS011;13669;50.186;27.062;2022-12-28T16:32:24;15.43;;;7.53;;
25838;SDS011;13669;50.186;27.062;2022-12-28T16:34:52;13.75;;;6.47;;
25838;SDS011;13669;50.186;27.062;2022-12-28T16:37:20;21.90;;;10.13;;
25838;SDS011;13669;50.186;27.062;2022-12-28T16:39:48;17.27;;;8.23;;
25838;SDS011;13669;50.186;27.062;2022-12-28T16:42:16;18.60;;;8.82;;
25838;SDS011;13669;50.186;27.062;2022-12-28T16:44:43;17.48;;;8.30;;
25838;SDS011;13669;50.186;27.062;2022-12-28T16:47:11;19.52;;;8.07;;